Terminal Aerodrome Forecast
Issued by NWS

Home | Current Version | Previous Version | Text Only | Print | Product List | Glossary On
Versions: 1 2 3 4 5 6 7 8 9 10 11 12 13 14 15 16
000
FTUS43 KGRB 220034 AAA
TAFRHI
TAF AMD
KRHI 220034Z 2201/2224 18005KT P6SM OVC035 WS010/18035KT
     FM220500 18007KT P6SM -TSRA OVC014CB WS010/19035KT
     FM220700 18010KT 6SM -SHRA OVC006
     FM221200 20010KT 5SM -SHRA OVC005
     FM221500 25006KT P6SM -SHRA OVC015
     FM221900 27006KT P6SM SCT025=

USA.gov is the U.S. government's official web portal to all federal, state and local government web resources and services.